Time;durP1;ratioP1;P1;durP2;ratioP2;P2;SDS_P1;SDS_P2;PMS_P1;PMS_P2;Temp;Humidity;BMP_temperature;BMP_pressure;BME280_temperature;BME280_humidity;BME280_pressure;Samples;Min_cycle;Max_cycle;Signal;HPM_P1;HPM_P2
2021/08/11 00:00:42;;;;;;;5.07;3.97;;;16.80;99.90;;;;;;6089838;23;20693;-93
2021/08/11 00:03:09;;;;;;;4.73;4.33;;;16.80;99.90;;;;;;6091014;23;20600;-93
2021/08/11 00:05:36;;;;;;;5.03;3.97;;;16.80;99.90;;;;;;6091140;23;20592;-92
2021/08/11 00:08:04;;;;;;;4.40;4.00;;;16.80;99.90;;;;;;6093000;23;20586;-93
2021/08/11 00:10:31;;;;;;;4.00;3.60;;;16.70;99.90;;;;;;6093374;23;20622;-94
2021/08/11 00:12:58;;;;;;;7.33;5.00;;;16.70;99.90;;;;;;6092427;23;20585;-93
2021/08/11 00:15:25;;;;;;;7.43;3.80;;;16.60;99.90;;;;;;6093656;23;20593;-93
2021/08/11 00:17:52;;;;;;;4.50;4.10;;;16.60;99.90;;;;;;6093024;23;20596;-93
2021/08/11 00:20:19;;;;;;;5.33;4.20;;;16.60;99.90;;;;;;6093216;23;20636;-93
2021/08/11 00:22:46;;;;;;;5.20;4.70;;;16.60;99.90;;;;;;6066695;23;20622;-94
2021/08/11 00:25:15;;;;;;;5.10;4.40;;;16.60;99.90;;;;;;6068700;23;20964;-93
2021/08/11 00:27:42;;;;;;;4.93;4.53;;;16.60;99.90;;;;;;6093212;23;20613;-93
2021/08/11 00:30:10;;;;;;;4.50;3.70;;;16.50;99.90;;;;;;6094854;23;20603;-92
2021/08/11 00:32:36;;;;;;;8.03;5.10;;;16.50;99.90;;;;;;6094000;23;20590;-93
2021/08/11 00:35:04;;;;;;;5.30;4.80;;;16.50;99.90;;;;;;6093051;23;20697;-93
2021/08/11 00:37:31;;;;;;;4.13;3.83;;;16.50;99.90;;;;;;6092201;23;20598;-93
2021/08/11 00:39:59;;;;;;;4.73;4.33;;;16.50;99.90;;;;;;6068787;23;20614;-94
2021/08/11 00:42:27;;;;;;;4.33;3.93;;;16.40;99.90;;;;;;6093501;23;21187;-92
2021/08/11 00:44:54;;;;;;;7.00;4.83;;;16.40;99.90;;;;;;6094466;23;20594;-93
2021/08/11 00:47:27;;;;;;;5.73;4.53;;;16.40;99.90;;;;;;6094379;23;20573;-92
2021/08/11 00:49:54;;;;;;;4.93;4.17;;;16.40;99.90;;;;;;6095498;23;21209;-93
2021/08/11 00:52:21;;;;;;;5.70;4.17;;;16.40;99.90;;;;;;6094422;23;20581;-92
2021/08/11 00:54:49;;;;;;;4.53;3.90;;;16.40;99.90;;;;;;6093855;23;20613;-93
2021/08/11 00:57:18;;;;;;;8.17;4.80;;;16.30;99.90;;;;;;6094016;23;20523;-93
2021/08/11 00:59:47;;;;;;;6.27;4.43;;;16.30;99.90;;;;;;6093355;23;20648;-94
2021/08/11 01:02:16;;;;;;;4.50;4.10;;;16.30;99.90;;;;;;6094395;23;20616;-91
2021/08/11 01:04:44;;;;;;;4.70;4.20;;;16.30;99.90;;;;;;6094765;23;20594;-93
2021/08/11 01:07:12;;;;;;;4.23;3.83;;;16.30;99.90;;;;;;6093516;23;20573;-93
2021/08/11 01:09:40;;;;;;;4.30;3.90;;;16.20;99.90;;;;;;6094251;23;20614;-92
2021/08/11 01:12:07;;;;;;;6.83;4.13;;;16.20;99.90;;;;;;6094221;23;20563;-93
2021/08/11 01:14:37;;;;;;;5.53;4.07;;;16.20;99.90;;;;;;6093637;23;20596;-93
2021/08/11 01:17:05;;;;;;;5.40;4.63;;;16.20;99.90;;;;;;6094511;23;20551;-92
2021/08/11 01:19:32;;;;;;;5.17;4.67;;;16.20;99.90;;;;;;6093540;23;20597;-94
2021/08/11 01:22:06;;;;;;;5.63;4.50;;;16.10;99.90;;;;;;6093697;23;20602;-93
2021/08/11 01:24:42;;;;;;;4.87;4.47;;;16.10;99.90;;;;;;6094367;23;20645;-93
2021/08/11 01:27:31;;;;;;;5.20;4.80;;;16.10;99.90;;;;;;6091020;23;20597;-92
2021/08/11 01:30:11;;;;;;;5.73;5.03;;;16.10;99.90;;;;;;6093124;23;20669;-93
2021/08/11 01:32:53;;;;;;;5.63;4.60;;;16.20;99.90;;;;;;6091511;23;20601;-94
2021/08/11 01:35:27;;;;;;;5.00;4.50;;;16.10;99.90;;;;;;6088669;23;20604;-93
2021/08/11 01:37:56;;;;;;;4.77;4.37;;;16.20;99.90;;;;;;6088751;23;20569;-94
2021/08/11 01:40:26;;;;;;;5.00;4.50;;;16.20;99.90;;;;;;6088719;23;20691;-93
2021/08/11 01:42:54;;;;;;;5.83;5.30;;;16.20;99.90;;;;;;6087670;23;20963;-92
2021/08/11 01:45:28;;;;;;;4.83;4.03;;;16.20;99.90;;;;;;6092476;23;20588;-93
2021/08/11 01:47:57;;;;;;;7.33;4.93;;;16.20;99.90;;;;;;6092741;23;20578;-93
2021/08/11 01:50:27;;;;;;;7.50;4.13;;;16.10;99.90;;;;;;6094157;23;20591;-93
2021/08/11 01:52:56;;;;;;;5.20;4.77;;;16.20;99.90;;;;;;6093212;23;20593;-93
2021/08/11 01:55:23;;;;;;;4.60;4.20;;;16.20;99.90;;;;;;6094102;23;20637;-93
2021/08/11 01:57:52;;;;;;;5.03;4.63;;;16.10;99.90;;;;;;6089856;23;20964;-93
2021/08/11 02:00:22;;;;;;;5.37;4.87;;;16.20;99.90;;;;;;6093599;23;21025;-93
2021/08/11 02:02:49;;;;;;;5.33;4.83;;;16.10;99.90;;;;;;6091663;23;20664;-93
2021/08/11 02:05:17;;;;;;;4.70;4.30;;;16.10;99.90;;;;;;6088764;23;20534;-93
2021/08/11 02:07:46;;;;;;;4.80;4.37;;;16.10;99.90;;;;;;6091137;23;20585;-93
2021/08/11 02:10:21;;;;;;;5.43;4.93;;;16.10;99.90;;;;;;6093179;23;20610;-93
2021/08/11 02:12:49;;;;;;;6.60;4.40;;;16.00;99.90;;;;;;6093318;23;20544;-93
2021/08/11 02:15:16;;;;;;;4.00;3.60;;;16.00;99.90;;;;;;6093143;23;20519;-93
2021/08/11 02:17:45;;;;;;;4.93;3.83;;;16.00;99.90;;;;;;6092686;23;20907;-94
2021/08/11 02:20:14;;;;;;;5.27;4.87;;;15.90;99.90;;;;;;6068188;23;20665;-91
2021/08/11 02:22:42;;;;;;;5.73;4.67;;;15.90;99.90;;;;;;6091783;23;21147;-93
2021/08/11 02:25:13;;;;;;;4.97;4.43;;;15.90;99.90;;;;;;6091646;23;20606;-93
2021/08/11 02:27:47;;;;;;;5.13;4.63;;;15.80;99.90;;;;;;6091148;23;20586;-93
2021/08/11 02:30:16;;;;;;;4.60;4.30;;;15.80;99.90;;;;;;6091888;23;20601;-93
2021/08/11 02:32:49;;;;;;;4.73;4.30;;;15.70;99.90;;;;;;6088513;23;20578;-93
2021/08/11 02:35:20;;;;;;;4.60;4.20;;;15.70;99.90;;;;;;6091475;23;20586;-93
2021/08/11 02:37:53;;;;;;;5.83;4.87;;;15.70;99.90;;;;;;6091156;23;20586;-93
2021/08/11 02:40:27;;;;;;;5.80;4.37;;;15.70;99.90;;;;;;6091758;23;21013;-93
2021/08/11 02:43:00;;;;;;;4.33;4.03;;;15.70;99.90;;;;;;6091933;23;20645;-93
2021/08/11 02:45:30;;;;;;;5.30;4.80;;;15.60;99.90;;;;;;6092290;23;21509;-94
2021/08/11 02:47:59;;;;;;;4.80;4.40;;;15.60;99.90;;;;;;6090589;23;20617;-93
2021/08/11 02:50:26;;;;;;;5.37;4.87;;;15.60;99.90;;;;;;6087885;23;20618;-93
2021/08/11 02:52:54;;;;;;;5.63;5.13;;;15.50;99.90;;;;;;6090475;23;20590;-93
2021/08/11 02:55:23;;;;;;;7.30;5.07;;;15.50;99.90;;;;;;6091088;23;20590;-93
2021/08/11 02:57:51;;;;;;;4.93;4.53;;;15.50;99.90;;;;;;6092350;23;21177;-93
2021/08/11 03:00:19;;;;;;;5.03;4.50;;;15.50;99.90;;;;;;6093107;23;21166;-92
2021/08/11 03:02:46;;;;;;;5.50;5.00;;;15.50;99.90;;;;;;6093502;23;21123;-93
2021/08/11 03:05:13;;;;;;;5.53;4.63;;;15.40;99.90;;;;;;6068356;23;20578;-93
2021/08/11 03:07:41;;;;;;;6.07;5.47;;;15.40;99.90;;;;;;6092630;23;21134;-93
2021/08/11 03:10:09;;;;;;;5.37;4.97;;;15.40;99.90;;;;;;6093020;23;21521;-93
2021/08/11 03:12:37;;;;;;;8.40;5.50;;;15.40;99.90;;;;;;6093265;23;21096;-93
2021/08/11 03:15:07;;;;;;;6.70;5.43;;;15.40;99.90;;;;;;6092568;23;20599;-94
2021/08/11 03:17:34;;;;;;;6.23;5.83;;;15.50;99.90;;;;;;6088008;23;20640;-93
2021/08/11 03:20:01;;;;;;;5.70;4.70;;;15.40;99.90;;;;;;6087188;23;20637;-93
2021/08/11 03:22:28;;;;;;;5.63;5.23;;;15.50;99.90;;;;;;6089658;23;20621;-93
2021/08/11 03:24:55;;;;;;;9.17;5.37;;;15.40;99.90;;;;;;6093017;23;20558;-93
2021/08/11 03:27:22;;;;;;;6.83;5.40;;;15.40;99.90;;;;;;6091450;23;20617;-94
2021/08/11 03:29:50;;;;;;;7.40;5.87;;;15.40;99.90;;;;;;6092700;23;20594;-92
2021/08/11 03:32:18;;;;;;;5.60;5.10;;;15.50;99.90;;;;;;6092650;23;20657;-93
2021/08/11 03:34:44;;;;;;;6.07;5.47;;;15.50;99.90;;;;;;6093019;23;20519;-93
2021/08/11 03:37:13;;;;;;;5.90;5.20;;;15.40;99.90;;;;;;6092573;23;20918;-93
2021/08/11 03:39:41;;;;;;;5.80;5.30;;;15.50;99.90;;;;;;6091268;23;20653;-94
2021/08/11 03:42:08;;;;;;;6.60;5.20;;;15.40;99.90;;;;;;6091465;23;20626;-93
2021/08/11 03:44:35;;;;;;;10.30;6.00;;;15.40;99.90;;;;;;6066561;23;20832;-92
2021/08/11 03:47:04;;;;;;;6.43;5.87;;;15.40;99.90;;;;;;6091091;23;20610;-93
2021/08/11 03:49:31;;;;;;;5.40;4.90;;;15.40;99.90;;;;;;6092444;23;21182;-93
2021/08/11 03:51:58;;;;;;;6.07;5.47;;;15.40;99.90;;;;;;6092809;23;20617;-94
2021/08/11 03:54:25;;;;;;;6.93;6.33;;;15.40;99.90;;;;;;6093524;23;20873;-93
2021/08/11 03:56:51;;;;;;;6.10;5.50;;;15.40;99.90;;;;;;6093660;23;20597;-93
2021/08/11 03:59:18;;;;;;;5.90;5.40;;;15.30;99.90;;;;;;6094127;23;20558;-93
2021/08/11 04:01:45;;;;;;;5.10;4.70;;;15.40;99.90;;;;;;6093540;23;20558;-93
2021/08/11 04:04:13;;;;;;;6.53;5.43;;;15.40;99.90;;;;;;6089312;23;20614;-93
2021/08/11 04:06:40;;;;;;;6.13;4.87;;;15.40;99.90;;;;;;6091230;23;20581;-92
2021/08/11 04:09:07;;;;;;;5.17;4.73;;;15.40;99.90;;;;;;6094135;23;21547;-93
2021/08/11 04:11:33;;;;;;;10.47;5.10;;;15.50;99.90;;;;;;6094784;23;21189;-93
2021/08/11 04:14:00;;;;;;;4.70;4.30;;;15.50;99.90;;;;;;6095293;23;21126;-93
2021/08/11 04:16:27;;;;;;;5.63;5.13;;;15.50;99.90;;;;;;6095376;23;20614;-93
2021/08/11 04:18:54;;;;;;;6.40;5.80;;;15.50;99.90;;;;;;6088626;23;20589;-94
2021/08/11 04:21:22;;;;;;;5.53;4.93;;;15.60;99.90;;;;;;6091741;23;20629;-93
2021/08/11 04:23:49;;;;;;;5.47;4.97;;;15.60;99.90;;;;;;6094338;23;20614;-93
2021/08/11 04:26:15;;;;;;;6.27;5.33;;;15.60;99.90;;;;;;6094924;23;20681;-93
2021/08/11 04:28:43;;;;;;;5.03;4.60;;;15.60;99.90;;;;;;6092372;23;20596;-93
2021/08/11 04:31:12;;;;;;;7.03;5.27;;;15.60;99.90;;;;;;6090337;23;20610;-93
2021/08/11 04:33:39;;;;;;;6.70;5.47;;;15.60;99.90;;;;;;6090720;23;20527;-93
2021/08/11 04:36:06;;;;;;;6.40;5.90;;;15.60;99.90;;;;;;6092377;23;20677;-93
2021/08/11 04:38:34;;;;;;;6.00;5.50;;;15.60;99.90;;;;;;6093096;23;20601;-93
2021/08/11 04:41:01;;;;;;;5.83;5.00;;;15.60;99.90;;;;;;6096044;23;20620;-93
2021/08/11 04:43:28;;;;;;;5.90;5.40;;;15.60;99.90;;;;;;6094279;23;20620;-93
2021/08/11 04:45:56;;;;;;;6.20;5.60;;;15.60;99.90;;;;;;6095582;23;20574;-93
2021/08/11 04:48:22;;;;;;;6.77;5.23;;;15.70;99.90;;;;;;6093289;23;20592;-93
2021/08/11 04:50:49;;;;;;;5.70;5.20;;;15.70;99.90;;;;;;6094982;23;20624;-93
2021/08/11 04:53:16;;;;;;;5.93;5.30;;;15.70;99.90;;;;;;6092525;23;20574;-92
2021/08/11 04:55:44;;;;;;;5.60;5.10;;;15.70;99.90;;;;;;6092040;23;20684;-93
2021/08/11 04:58:11;;;;;;;5.60;5.07;;;15.70;99.90;;;;;;6093270;23;20602;-92
2021/08/11 05:00:38;;;;;;;5.77;5.23;;;15.70;99.90;;;;;;6093429;23;20614;-93
2021/08/11 05:03:05;;;;;;;6.70;5.80;;;15.70;99.90;;;;;;6094060;23;20733;-93
2021/08/11 05:05:31;;;;;;;5.83;5.33;;;15.80;99.90;;;;;;6093283;23;20606;-93
2021/08/11 05:08:01;;;;;;;5.17;4.77;;;15.80;99.90;;;;;;6092601;23;20694;-93
2021/08/11 05:10:28;;;;;;;5.90;5.37;;;15.80;99.90;;;;;;6094857;23;20624;-93
2021/08/11 05:12:56;;;;;;;5.60;5.10;;;15.80;99.90;;;;;;6093337;23;20586;-93
2021/08/11 05:15:23;;;;;;;5.87;5.27;;;15.90;99.90;;;;;;6093318;23;21108;-93
2021/08/11 05:17:50;;;;;;;6.77;5.60;;;15.90;99.90;;;;;;6090751;23;20663;-94
2021/08/11 05:20:19;;;;;;;6.13;4.70;;;15.90;99.90;;;;;;6063942;23;20932;-93
2021/08/11 05:22:46;;;;;;;6.43;5.80;;;15.80;99.90;;;;;;6067089;23;20657;-92
2021/08/11 05:25:13;;;;;;;5.60;5.10;;;15.90;99.90;;;;;;6093260;23;20597;-93
2021/08/11 05:27:40;;;;;;;6.10;5.50;;;16.00;99.90;;;;;;6093791;23;20593;-93
2021/08/11 05:30:09;;;;;;;7.77;5.60;;;16.00;99.90;;;;;;6093767;23;20614;-92
2021/08/11 05:32:36;;;;;;;6.00;5.43;;;16.10;99.90;;;;;;6093601;23;20593;-92
2021/08/11 05:35:05;;;;;;;6.70;5.20;;;16.10;99.90;;;;;;6094936;23;20586;-92
2021/08/11 05:37:32;;;;;;;6.07;5.57;;;16.20;99.90;;;;;;6093302;23;20629;-92
2021/08/11 05:39:59;;;;;;;5.90;5.40;;;16.20;99.90;;;;;;6092431;23;20601;-92
2021/08/11 05:42:26;;;;;;;9.47;6.20;;;16.20;99.90;;;;;;6091196;23;20604;-92
2021/08/11 05:44:53;;;;;;;6.10;5.60;;;16.30;99.90;;;;;;6087702;23;20590;-93
2021/08/11 05:47:22;;;;;;;6.40;5.80;;;16.40;99.90;;;;;;6092253;23;20677;-93
2021/08/11 05:49:52;;;;;;;6.20;5.40;;;16.40;99.90;;;;;;6091897;23;20958;-93
2021/08/11 05:52:19;;;;;;;5.37;4.93;;;16.50;99.90;;;;;;6093005;23;20594;-93
2021/08/11 05:54:50;;;;;;;5.30;4.90;;;16.60;99.90;;;;;;6093680;23;20957;-92
2021/08/11 05:57:17;;;;;;;5.87;5.37;;;16.70;99.90;;;;;;6093885;23;21142;-93
2021/08/11 05:59:44;;;;;;;6.13;5.53;;;16.80;99.90;;;;;;6094248;23;20617;-93
2021/08/11 06:02:12;;;;;;;7.20;6.03;;;16.80;99.90;;;;;;6093412;23;20612;-93
2021/08/11 06:04:40;;;;;;;6.20;5.70;;;16.90;99.90;;;;;;6092702;23;20666;-92
2021/08/11 06:07:07;;;;;;;7.53;5.60;;;17.00;99.90;;;;;;6091496;23;20594;-93
2021/08/11 06:09:34;;;;;;;6.40;5.83;;;17.10;99.90;;;;;;6091426;23;21005;-93
2021/08/11 06:12:01;;;;;;;6.70;6.00;;;17.30;99.90;;;;;;6092628;23;20590;-93
2021/08/11 06:14:29;;;;;;;5.60;5.10;;;17.40;99.90;;;;;;6092440;23;20606;-94
2021/08/11 06:16:55;;;;;;;5.70;5.00;;;17.50;99.90;;;;;;6091449;23;20590;-93
2021/08/11 06:19:22;;;;;;;6.30;5.50;;;17.60;99.90;;;;;;6092155;23;20614;-92
2021/08/11 06:21:51;;;;;;;6.23;5.50;;;17.70;99.90;;;;;;6092717;23;21183;-92
2021/08/11 06:24:18;;;;;;;5.60;5.10;;;17.80;99.90;;;;;;6066915;23;20689;-93
2021/08/11 06:26:45;;;;;;;5.43;4.93;;;17.90;99.90;;;;;;6092896;23;20998;-93
2021/08/11 06:29:12;;;;;;;5.97;4.73;;;18.10;99.90;;;;;;6091409;23;20596;-92
2021/08/11 06:31:39;;;;;;;8.80;5.30;;;18.20;99.90;;;;;;6090333;23;20593;-93
2021/08/11 06:34:06;;;;;;;5.93;5.40;;;18.40;99.90;;;;;;6090879;23;20570;-93
2021/08/11 06:36:34;;;;;;;5.13;4.63;;;18.50;99.90;;;;;;6090603;23;21344;-93
2021/08/11 06:39:02;;;;;;;12.73;5.03;;;18.60;99.90;;;;;;6092519;23;20590;-92
2021/08/11 06:41:29;;;;;;;5.57;4.90;;;18.70;99.90;;;;;;6093881;23;20963;-93
2021/08/11 06:43:56;;;;;;;6.97;4.23;;;18.80;99.90;;;;;;6094307;23;20625;-93
2021/08/11 06:46:22;;;;;;;5.23;4.23;;;18.90;99.90;;;;;;6093540;23;20589;-93
2021/08/11 06:48:49;;;;;;;4.80;4.13;;;19.00;99.90;;;;;;6067452;23;20645;-92
2021/08/11 06:51:16;;;;;;;5.10;3.83;;;19.00;99.90;;;;;;6091625;23;21024;-93
2021/08/11 06:53:52;;;;;;;10.13;5.03;;;19.00;99.90;;;;;;6091947;23;20674;-93
2021/08/11 06:56:20;;;;;;;6.70;5.17;;;19.10;99.90;;;;;;6090888;23;20605;-92
2021/08/11 06:58:47;;;;;;;5.00;4.60;;;19.30;99.90;;;;;;6063923;23;20955;-93
2021/08/11 07:01:14;;;;;;;7.40;5.00;;;19.40;99.90;;;;;;6066504;23;20614;-92
2021/08/11 07:03:41;;;;;;;5.00;4.23;;;19.60;99.90;;;;;;6093370;23;20640;-93
2021/08/11 07:06:08;;;;;;;6.93;4.67;;;19.70;99.90;;;;;;6093340;23;20590;-92
2021/08/11 07:08:35;;;;;;;4.13;3.73;;;19.80;99.90;;;;;;6091679;23;20941;-91
2021/08/11 07:11:01;;;;;;;6.07;4.90;;;19.90;99.90;;;;;;6092359;23;20705;-93
2021/08/11 07:13:30;;;;;;;4.40;4.00;;;19.90;99.90;;;;;;6092238;23;20575;-92
2021/08/11 07:15:57;;;;;;;8.97;4.03;;;19.90;99.90;;;;;;6091000;23;21100;-92
2021/08/11 07:18:24;;;;;;;4.20;3.80;;;20.00;99.90;;;;;;6090828;23;20978;-93
2021/08/11 07:20:52;;;;;;;7.03;4.70;;;20.00;99.90;;;;;;6091392;23;20660;-92
2021/08/11 07:23:18;;;;;;;7.47;4.20;;;20.10;99.90;;;;;;6090412;23;20577;-94
2021/08/11 07:25:45;;;;;;;5.37;4.97;;;20.20;99.90;;;;;;6091770;23;20965;-93
2021/08/11 07:28:12;;;;;;;5.43;4.27;;;20.30;99.90;;;;;;6090461;23;21170;-93
2021/08/11 07:30:41;;;;;;;7.40;4.70;;;20.40;99.90;;;;;;6091484;23;20606;-93
2021/08/11 07:33:09;;;;;;;5.70;4.27;;;20.70;99.90;;;;;;6091284;23;21262;-92
2021/08/11 07:35:36;;;;;;;5.47;4.00;;;20.80;99.90;;;;;;6085801;23;20584;-93
2021/08/11 07:38:03;;;;;;;4.20;3.60;;;20.90;99.90;;;;;;6089221;23;20577;-92
2021/08/11 07:40:31;;;;;;;5.80;3.97;;;21.00;99.90;;;;;;6092763;23;21012;-92
2021/08/11 07:43:00;;;;;;;5.33;3.97;;;21.10;99.90;;;;;;6092527;23;20952;-93
2021/08/11 07:45:30;;;;;;;7.13;4.70;;;21.00;99.90;;;;;;6092817;23;20602;-92
2021/08/11 07:47:59;;;;;;;4.13;3.73;;;21.10;99.90;;;;;;6091686;23;20582;-94
2021/08/11 07:50:29;;;;;;;9.60;4.57;;;21.20;99.90;;;;;;6092880;23;20595;-93
2021/08/11 07:52:56;;;;;;;8.47;4.80;;;21.30;99.90;;;;;;6092194;23;20515;-93
2021/08/11 07:55:24;;;;;;;5.63;5.00;;;21.40;99.90;;;;;;6093415;23;20657;-93
2021/08/11 07:57:51;;;;;;;4.20;3.70;;;21.60;99.90;;;;;;6092299;23;20590;-93
2021/08/11 08:00:20;;;;;;;5.07;4.33;;;21.60;99.90;;;;;;6092322;23;20610;-93
2021/08/11 08:02:47;;;;;;;4.97;4.17;;;21.70;99.90;;;;;;6092339;23;20562;-93
2021/08/11 08:05:16;;;;;;;4.17;3.80;;;21.70;99.90;;;;;;6093229;23;20618;-93
2021/08/11 08:07:43;;;;;;;5.37;3.80;;;21.80;99.90;;;;;;6091284;23;20669;-93
2021/08/11 08:10:11;;;;;;;4.13;3.73;;;22.00;99.90;;;;;;6093319;23;20601;-93
2021/08/11 08:12:39;;;;;;;5.10;4.60;;;22.10;99.90;;;;;;6091505;23;21022;-93
2021/08/11 08:15:07;;;;;;;8.93;4.47;;;22.20;99.90;;;;;;6093878;23;20649;-93
2021/08/11 08:17:34;;;;;;;5.40;4.53;;;22.30;99.90;;;;;;6091868;23;20590;-93
2021/08/11 08:20:01;;;;;;;5.20;3.80;;;22.40;99.90;;;;;;6092887;23;20633;-93
2021/08/11 08:22:29;;;;;;;4.63;4.27;;;22.50;99.90;;;;;;6092518;23;20597;-93
2021/08/11 08:24:56;;;;;;;7.73;4.00;;;22.60;99.90;;;;;;6093001;23;20622;-93
2021/08/11 08:27:24;;;;;;;4.97;4.47;;;22.70;99.90;;;;;;6091289;23;20903;-92
2021/08/11 08:29:51;;;;;;;4.23;3.40;;;22.80;99.90;;;;;;6092108;23;21027;-93
2021/08/11 08:32:18;;;;;;;6.20;4.17;;;22.90;99.90;;;;;;6092452;23;20598;-93
2021/08/11 08:34:45;;;;;;;4.60;3.60;;;23.00;99.90;;;;;;6092771;23;20601;-93
2021/08/11 08:37:29;;;;;;;5.50;3.90;;;22.90;99.90;;;;;;6094157;23;20572;-94
2021/08/11 08:39:56;;;;;;;5.73;4.27;;;23.00;99.90;;;;;;6094862;23;20629;-93
2021/08/11 08:42:22;;;;;;;6.40;3.50;;;23.10;99.90;;;;;;6092719;23;20608;-93
2021/08/11 08:44:49;;;;;;;5.27;3.43;;;23.20;99.90;;;;;;6094392;23;20610;-92
2021/08/11 08:47:18;;;;;;;5.17;4.43;;;23.40;99.90;;;;;;6094632;23;20590;-93
2021/08/11 08:49:46;;;;;;;4.40;3.70;;;23.60;99.90;;;;;;6093559;23;20610;-93
2021/08/11 08:52:14;;;;;;;4.60;3.60;;;23.60;99.90;;;;;;6093447;23;21160;-92
2021/08/11 08:54:43;;;;;;;5.90;4.57;;;23.70;99.90;;;;;;6092793;23;20594;-92
2021/08/11 08:57:09;;;;;;;7.00;5.27;;;23.80;99.90;;;;;;6091035;23;21474;-93
2021/08/11 08:59:39;;;;;;;4.17;3.73;;;24.00;99.90;;;;;;6091126;23;20601;-94
2021/08/11 09:02:09;;;;;;;4.77;4.17;;;24.10;99.90;;;;;;6093828;23;21111;-93
2021/08/11 09:04:36;;;;;;;7.00;3.93;;;24.20;99.90;;;;;;6093665;23;20630;-93
2021/08/11 09:07:06;;;;;;;5.07;4.20;;;24.30;99.90;;;;;;6093149;23;21063;-93
2021/08/11 09:09:37;;;;;;;4.10;3.70;;;24.40;99.90;;;;;;6092362;23;20590;-93
2021/08/11 09:12:26;;;;;;;4.20;3.80;;;24.50;99.90;;;;;;6091463;23;20574;-93
2021/08/11 09:14:53;;;;;;;4.83;3.90;;;24.60;99.90;;;;;;6086978;23;20592;-93
2021/08/11 09:17:34;;;;;;;5.00;4.00;;;24.60;99.90;;;;;;6092826;23;20616;-93
2021/08/11 09:20:02;;;;;;;4.20;3.80;;;24.60;99.90;;;;;;6093936;23;20620;-92
2021/08/11 09:22:28;;;;;;;10.07;5.17;;;24.60;99.90;;;;;;6093504;23;20585;-93
2021/08/11 09:25:05;;;;;;;4.93;3.50;;;24.80;99.90;;;;;;6093649;23;20613;-94
2021/08/11 09:27:39;;;;;;;6.10;3.80;;;24.90;99.90;;;;;;6089571;23;20523;-93
2021/08/11 09:30:11;;;;;;;7.27;5.00;;;24.90;99.90;;;;;;6093683;23;20688;-93
2021/08/11 09:32:53;;;;;;;14.33;8.00;;;25.00;99.90;;;;;;6093876;23;20539;-93
2021/08/11 09:35:22;;;;;;;9.50;4.43;;;25.10;99.90;;;;;;6098522;23;20570;-93
2021/08/11 09:37:50;;;;;;;4.97;3.57;;;25.20;99.90;;;;;;6091629;23;20593;-93
2021/08/11 09:40:19;;;;;;;5.00;3.90;;;25.40;99.90;;;;;;6092919;23;20594;-93
2021/08/11 09:42:48;;;;;;;3.60;3.30;;;25.60;99.90;;;;;;6093310;23;20569;-93
2021/08/11 09:45:16;;;;;;;6.03;4.40;;;25.70;99.90;;;;;;6093488;23;20624;-92
2021/08/11 09:48:02;;;;;;;7.13;4.20;;;25.90;99.90;;;;;;6091709;23;20541;-93
2021/08/11 09:50:35;;;;;;;7.70;4.40;;;25.90;99.90;;;;;;6093340;23;20609;-93
2021/08/11 09:53:02;;;;;;;6.27;3.97;;;25.90;99.90;;;;;;6092750;23;20589;-93
2021/08/11 09:55:29;;;;;;;4.70;4.13;;;25.90;99.90;;;;;;6094013;23;20673;-94
2021/08/11 09:57:57;;;;;;;5.30;4.00;;;26.00;99.90;;;;;;6092108;23;20590;-94
2021/08/11 10:00:25;;;;;;;4.70;3.60;;;26.00;99.90;;;;;;6092648;23;20625;-93
2021/08/11 10:03:05;;;;;;;5.47;3.53;;;26.10;99.90;;;;;;6093172;23;20602;-93
2021/08/11 10:05:36;;;;;;;3.90;3.60;;;26.20;99.90;;;;;;6093538;23;20580;-93
2021/08/11 10:08:03;;;;;;;5.23;3.47;;;26.50;99.90;;;;;;6091313;23;20594;-94
2021/08/11 10:10:46;;;;;;;4.70;4.30;;;26.50;99.90;;;;;;6091667;23;20626;-93
2021/08/11 10:13:16;;;;;;;4.60;4.20;;;26.70;99.90;;;;;;6092335;23;20577;-93
2021/08/11 10:15:44;;;;;;;6.17;3.70;;;26.90;99.90;;;;;;6093455;23;20653;-93
2021/08/11 10:18:12;;;;;;;5.40;3.30;;;27.30;99.90;;;;;;6092046;23;20568;-94
2021/08/11 10:20:41;;;;;;;5.87;3.80;;;27.50;99.90;;;;;;6092928;23;20645;-93
2021/08/11 10:23:08;;;;;;;4.47;3.90;;;27.70;99.90;;;;;;6091462;23;20586;-94
2021/08/11 10:25:35;;;;;;;5.80;4.07;;;28.10;99.90;;;;;;6092754;23;20606;-93
2021/08/11 10:28:03;;;;;;;5.47;4.07;;;28.30;98.70;;;;;;6091711;23;20586;-93
2021/08/11 10:30:32;;;;;;;4.43;4.03;;;28.70;97.70;;;;;;6092828;23;20613;-93
2021/08/11 10:33:01;;;;;;;5.70;5.30;;;28.90;95.70;;;;;;6092743;23;20881;-93
2021/08/11 10:35:28;;;;;;;3.63;3.37;;;29.10;95.20;;;;;;6093102;23;20563;-93
2021/08/11 10:37:58;;;;;;;4.00;3.13;;;29.30;95.30;;;;;;6090870;23;20577;-93
2021/08/11 10:40:25;;;;;;;4.57;4.13;;;29.40;95.70;;;;;;6093466;23;20641;-91
2021/08/11 10:42:54;;;;;;;4.50;4.10;;;29.40;94.30;;;;;;6094364;23;20523;-93
2021/08/11 10:45:23;;;;;;;4.27;3.97;;;29.20;94.80;;;;;;6094243;23;20616;-93
2021/08/11 10:47:53;;;;;;;6.30;5.70;;;29.00;96.10;;;;;;6092151;23;20621;-93
2021/08/11 10:50:20;;;;;;;7.20;6.60;;;28.90;96.80;;;;;;6068720;23;20626;-93
2021/08/11 10:52:47;;;;;;;5.00;4.03;;;28.90;96.90;;;;;;6066124;23;20614;-92
2021/08/11 10:55:14;;;;;;;6.43;3.50;;;28.80;97.00;;;;;;6067555;23;20590;-93
2021/08/11 10:57:47;;;;;;;5.67;3.67;;;28.70;96.50;;;;;;6091830;23;20577;-93
2021/08/11 11:00:41;;;;;;;7.30;4.20;;;28.80;95.80;;;;;;6092401;23;20610;-93
2021/08/11 11:03:50;;;;;;;3.70;3.50;;;28.90;97.30;;;;;;6092092;23;20562;-93
2021/08/11 11:06:18;;;;;;;3.93;3.60;;;28.70;97.30;;;;;;6091521;23;20646;-93
2021/08/11 11:08:45;;;;;;;4.50;3.97;;;28.50;98.10;;;;;;6090793;23;20593;-93
2021/08/11 11:11:42;;;;;;;4.07;3.70;;;28.40;99.40;;;;;;6092322;23;20650;-93
2021/08/11 11:14:57;;;;;;;4.57;4.17;;;28.30;98.50;;;;;;6091881;23;20586;-92
2021/08/11 11:17:25;;;;;;;7.77;4.47;;;28.20;97.80;;;;;;6091532;23;20590;-91
2021/08/11 11:20:29;;;;;;;5.90;3.83;;;28.10;99.50;;;;;;6092117;23;20598;-92
2021/08/11 11:22:59;;;;;;;4.33;3.97;;;28.00;99.90;;;;;;6087708;23;20608;-93
2021/08/11 11:25:57;;;;;;;4.87;4.30;;;27.90;97.60;;;;;;6092781;23;20594;-93
2021/08/11 11:28:50;;;;;;;3.73;3.53;;;27.90;99.90;;;;;;6091826;23;20590;-95
2021/08/11 11:31:38;;;;;;;4.53;4.13;;;28.40;99.90;;;;;;6093311;23;21143;-94
2021/08/11 11:34:24;;;;;;;4.30;3.90;;;29.20;96.10;;;;;;6091642;23;20574;-94
2021/08/11 11:37:24;;;;;;;3.50;3.30;;;30.00;94.80;;;;;;6090101;23;20592;-94
2021/08/11 11:40:16;;;;;;;4.53;4.23;;;30.60;93.10;;;;;;6092573;23;20685;-94
2021/08/11 11:42:44;;;;;;;4.60;4.20;;;31.20;91.40;;;;;;6071715;23;20941;-94
2021/08/11 11:45:14;;;;;;;6.60;3.93;;;31.60;90.20;;;;;;6092788;23;21173;-93
2021/08/11 11:48:11;;;;;;;4.03;3.73;;;31.90;90.20;;;;;;6092772;23;20662;-94
2021/08/11 11:50:45;;;;;;;3.93;3.57;;;32.40;85.90;;;;;;6093647;23;20614;-94
2021/08/11 11:53:33;;;;;;;4.83;4.23;;;32.90;84.80;;;;;;6092305;23;20522;-94
2021/08/11 11:56:13;;;;;;;7.27;6.87;;;33.30;82.30;;;;;;6093039;23;20578;-94
2021/08/11 11:58:46;;;;;;;4.23;3.93;;;33.60;82.00;;;;;;6092967;23;20569;-95
2021/08/11 12:01:13;;;;;;;5.97;4.40;;;34.00;80.20;;;;;;6092812;23;20591;-94
2021/08/11 12:03:42;;;;;;;4.87;4.47;;;34.40;79.40;;;;;;6094254;23;20640;-94
2021/08/11 12:06:10;;;;;;;4.70;4.27;;;34.70;77.20;;;;;;6098479;23;20610;-92
2021/08/11 12:08:39;;;;;;;7.17;6.67;;;34.90;73.90;;;;;;6089931;23;20590;-93
2021/08/11 12:11:09;;;;;;;7.13;6.57;;;34.60;74.60;;;;;;6097441;23;20620;-93
2021/08/11 12:13:43;;;;;;;5.30;4.00;;;34.20;73.70;;;;;;6094179;23;20586;-93
2021/08/11 12:16:12;;;;;;;7.73;7.10;;;34.10;75.00;;;;;;6093615;23;20565;-93
2021/08/11 12:18:41;;;;;;;3.93;3.63;;;33.90;77.00;;;;;;6091931;23;20594;-93
2021/08/11 12:21:08;;;;;;;4.73;4.33;;;33.60;79.50;;;;;;6093086;23;20616;-93
2021/08/11 12:23:35;;;;;;;5.13;4.57;;;33.40;79.80;;;;;;6093169;23;20565;-94
2021/08/11 12:26:07;;;;;;;7.97;4.40;;;33.40;80.20;;;;;;6094508;23;21298;-94
2021/08/11 12:28:36;;;;;;;5.70;5.17;;;33.40;78.70;;;;;;6092776;23;20565;-93
2021/08/11 12:31:06;;;;;;;5.50;4.93;;;33.80;79.40;;;;;;6093410;23;20601;-94
2021/08/11 12:33:36;;;;;;;6.10;4.63;;;34.40;77.40;;;;;;6093430;23;20806;-94
2021/08/11 12:36:04;;;;;;;5.30;4.80;;;35.00;77.20;;;;;;6093412;23;20621;-93
2021/08/11 12:38:33;;;;;;;5.40;4.90;;;35.30;74.90;;;;;;6091211;23;20690;-94
2021/08/11 12:41:16;;;;;;;5.87;5.33;;;35.70;72.60;;;;;;6092726;23;20613;-93
2021/08/11 12:43:43;;;;;;;5.40;4.90;;;35.80;73.10;;;;;;6093231;23;20573;-93
2021/08/11 12:46:10;;;;;;;4.30;3.80;;;35.80;73.40;;;;;;6093177;23;21003;-93
2021/08/11 12:48:37;;;;;;;5.17;4.70;;;36.50;69.30;;;;;;6091755;23;20562;-94
2021/08/11 12:51:06;;;;;;;4.70;3.90;;;36.60;68.00;;;;;;6093566;23;20988;-93
2021/08/11 12:53:36;;;;;;;4.93;4.43;;;37.00;66.80;;;;;;6091821;23;20688;-93
2021/08/11 12:56:11;;;;;;;4.50;4.20;;;37.20;66.00;;;;;;6092714;23;20574;-93
2021/08/11 12:59:04;;;;;;;4.20;3.60;;;37.10;64.20;;;;;;6091929;23;20600;-92